Tiempo atmosférico en la estación meteorológica de San Pablo De Los Montes, Toledo (917 m.)



Fecha
DESCASC
Temp. máxima en grados centígrados (hora)
DESCASC
Temp. mínima en grados centígrados (hora)
DESCASC
Temp. media en grados centígrados
DESCASC
Racha de viento máxima en m/sg (hora)
DESCASC
Velocidad máxima media en intervalos de 10 minutos(hora)
DESCASC
Precipitaciones diarias en mm
DESCASC
Precipitaciones de 00:00 a 06:00 en mm
DESCASC
Precipitaciones de 06:00 a 12:00 en mm
DESCASC
Precipitaciones de 12:00 a 18:00 en mm
DESCASC
Precipitaciones de 18:00 a 24:00 en mm
DESCASC
19-02-2019 12 (16:10) 3.2 (06:20) 7.6 4.72 (19:10) 3.06 (19:10) 1.8 0 0 0 1.8
18-02-2019 11.6 (16:50) 5 (08:30) 8.3 5 (03:30) 3.89 (05:10) 0 0 0 0 0
17-02-2019 13.9 (15:50) 1 (00:00) 7.4 7.5 (02:50) 5 (04:20) 0 0 0 0 0
16-02-2019 13.8 (17:00) -0.6 (-00:0) 6.6 4.72 (00:10) 2.78 (03:30) 0 0 0 0 0
15-02-2019 14.1 (16:40) 3.9 (00:00) 9 8.33 (22:50) 4.17 (22:50) 0 0 0 0 0
14-02-2019 13.6 (17:20) 1.1 (00:00) 7.4 3.89 (02:50) 2.78 (02:50) 0 0 0 0 0
13-02-2019 13.9 (15:20) 4.3 (00:00) 9.1 5 (13:30) 2.22 (14:50) 0 0 0 0 0
12-02-2019 12.2 (16:20) 0.7 (00:00) 6.4 4.72 (14:00) 2.78 (14:00) 0 0 0 0 0
11-02-2019 11.9 (16:40) 4.6 (00:00) 8.2 8.33 (01:20) 3.61 (00:10) 0 0 0 0 0
10-02-2019 9.3 (16:50) 3.9 (00:00) 6.6 13.89 (22:10) 9.17 (11:20) 0 0 0 0 0
09-02-2019 13.4 (15:30) 1.7 (00:00) 7.5 10.83 (01:40) 7.78 (01:40) 0 0 0 0 0
08-02-2019 14.3 (16:20) 3.6 (00:00) 9 12.78 (14:20) 6.11 (12:00) 0 0 0 0 0
07-02-2019 14.8 (15:40) 4.7 (00:00) 9.8 4.17 (16:30) 2.22 (03:40) 0 0 0 0 0
06-02-2019 15.6 (15:20) 5.4 (23:59) 10.5 4.72 (09:10) 3.33 (09:10) 0 0 0 0 0
05-02-2019 13.9 (15:40) 3.8 (00:00) 8.8 4.72 (16:20) 2.22 (16:00) 0 0 0 0 0
04-02-2019 11.7 (16:00) -0.5 (-00:0) 5.6 3.89 (16:10) 2.5 (06:30) 0 0 0 0 0
03-02-2019 5.6 (16:10) -2.1 (-00:0) 1.8 12.22 (14:10) 6.67 (14:20) 0 0 0 0 0
02-02-2019 6.5 (14:30) 0 (00:00) 3.3 14.17 (11:30) 8.06 (17:30) 0 0 0 0 0
01-02-2019 8.1 (02:20) 1.5 (00:00) 4.8 26.11 (04:00) 11.67 (02:30) 22.7 16 0.9 5.7 0.1
31-01-2019 8.7 (16:20) 6.7 (00:00) 7.7 21.94 (20:20) 11.67 (20:00) 19.9 1.2 1.8 5.1 11.8
30-01-2019 8.1 (14:30) 1.7 (00:00) 4.9 18.33 (22:20) 9.17 (18:50) 0.6 0 0 0 0.6
29-01-2019 8.7 (12:00) 2.2 (00:00) 5.4 18.33 (15:00) 8.89 (14:50) 0 0 0 0 0
28-01-2019 10.4 (16:20) 0 (00:00) 5.2 12.5 (17:40) 6.94 (17:40) 0 0 0 0 0
27-01-2019 9.9 (16:10) 2.4 (00:00) 6.1 8.61 (08:20) 5.28 (00:10) 0 0 0 0 0
26-01-2019 15.2 (15:20) 3.9 (00:00) 9.5 9.17 (20:00) 6.11 (19:20) 0 0 0 0 0
25-01-2019 13.5 (15:50) 3.7 (00:00) 8.6 8.61 (14:40) 5 (13:40) 0 0 0 0 0
24-01-2019 14 (15:00) 6.5 (00:00) 10.3 10 (00:40) 6.11 (03:10) 0 0 0 0 0

Gráficas

Temp. máximas Temp. mínimas Temp. medias Precipitaciones Rachas de viento máximas Velocidades máximas media en intervalos de 10 minutos

Datos horarios

Fecha y hora oficial Temperatura (ºC) Velocidad del viento (km/h) Dirección del viento Racha (km/h) Dirección de racha Precipitación (mm) Presión (hPa) Tendencia (hPa) Humedad (%)
2019-02-22 23:00:00 10 0 Calma -- -- 0 -- -- 30
2019-02-22 22:00:00 10.3 0 Calma 4 Sudoeste 0 -- -- 30
2019-02-22 21:00:00 10.4 3 Sudoeste 8 Oeste 0 -- -- 30
2019-02-22 20:00:00 10.3 5 Sudoeste 9 Sudoeste 0 -- -- 29
2019-02-22 19:00:00 12 7 Sudoeste 12 Sur 0 -- -- 24
2019-02-22 18:00:00 14.9 8 Sur 14 Sur 0 -- -- 21
2019-02-22 17:00:00 16.6 5 Sudoeste 18 Sur 0 -- -- 22
2019-02-22 16:00:00 16.6 8 Sur 17 Sudoeste 0 -- -- 22
2019-02-22 15:00:00 17.1 7 Sudoeste 18 Sudeste 0 -- -- 22
2019-02-22 14:00:00 16.2 7 Sur 23 Sur 0 -- -- 22
2019-02-22 13:00:00 15.9 8 Este 20 Este 0 -- -- 24
2019-02-22 12:00:00 14.8 4 Norte 10 Noroeste 0 -- -- 26
2019-02-22 11:00:00 12.9 4 Noroeste 10 Oeste 0 -- -- 28
2019-02-22 10:00:00 11.3 2 Sudoeste 5 Oeste 0 -- -- 30
2019-02-22 09:00:00 10.4 4 Sudeste 9 Sur 0 -- -- 30
2019-02-22 08:00:00 8.7 2 Sudeste 7 Sur 0 -- -- 29
2019-02-22 07:00:00 7.8 2 Este 6 Sudeste 0 -- -- 30
2019-02-22 06:00:00 8.4 6 Sur 11 Sur 0 -- -- 29
2019-02-22 05:00:00 8.9 6 Sur 8 Sur 0 -- -- 30
2019-02-22 04:00:00 8.7 5 Sudeste 8 Sudeste 0 -- -- 31
2019-02-22 03:00:00 9.5 0 Calma 7 Sur 0 -- -- 30
2019-02-22 02:00:00 9.2 6 Sur 9 Sur 0 -- -- 30
2019-02-22 01:00:00 8.6 5 Sur 9 Sur 0 -- -- 31
2019-02-22 00:00:00 8.3 8 Sur 13 Sur 0 -- -- 31
2019-02-21 23:00:00 8.1 0 Calma 8 Sur 0.1 -- -- 33
2019-02-21 22:00:00 8 5 Este 10 Sur 0 -- -- 31
2019-02-21 21:00:00 8.8 9 Sur 14 Sur 0 -- -- 29
2019-02-21 20:00:00 9.3 9 Sur 12 Sur 0 -- -- 29
2019-02-21 19:00:00 10.9 8 Sur 10 Sur 0 -- -- 27
2019-02-21 18:00:00 13.8 6 Sur 12 Sur 0 -- -- 24
2019-02-21 17:00:00 15.2 5 Sur 17 Sudoeste 0 -- -- 24
2019-02-21 16:00:00 15.3 11 Sur 20 Sur 0 -- -- 25
2019-02-21 15:00:00 15 6 Sudeste 21 Este 0 -- -- 27
2019-02-21 14:00:00 14.1 5 Sur 20 Sudeste 0 -- -- 27
2019-02-21 13:00:00 14.2 9 Sur 24 Sudeste 0.1 -- -- 30
2019-02-21 12:00:00 13.1 10 Este 25 Este 0 -- -- 30
2019-02-21 11:00:00 12.6 10 Este 23 Este 0 -- -- 37
2019-02-21 10:00:00 9.9 0 Calma 4 Norte 0 -- -- 44
2019-02-21 09:00:00 7.6 2 Sudoeste 12 Sur 0 -- -- 45
2019-02-21 08:00:00 6.2 0 Calma 5 Nordeste 0 -- -- 47
2019-02-21 07:00:00 6.5 0 Calma 8 Sudeste 0.1 -- -- 48
2019-02-21 06:00:00 6.3 3 Sudeste 11 Sur 0 -- -- 48
2019-02-21 05:00:00 6.5 0 Calma 9 Sudeste 0 -- -- 50
2019-02-21 04:00:00 6.6 0 Calma 8 Sudeste 0 -- -- 52
2019-02-21 03:00:00 6.8 5 Sudeste 8 Sudeste 0 -- -- 54
2019-02-21 02:00:00 7.1 0 Calma 6 Sudeste 0.1 -- -- 54
2019-02-21 01:00:00 7 3 Sur 7 Sur 0 -- -- 55
2019-02-21 00:00:00 7.5 0 Calma 5 Sudeste 0 -- -- 55
2019-02-20 23:00:00 6.9 5 Sudeste 7 Sudeste 0 -- -- 57
2019-02-20 22:00:00 7.6 0 Calma 3 Sudeste 0 -- -- 57
2019-02-20 21:00:00 7.7 2 Sudeste 6 Sudeste 0 -- -- 58
2019-02-20 20:00:00 7.9 0 Calma 4 Sudeste 0 -- -- 57
2019-02-20 19:00:00 9.1 0 Calma 6 Norte 0.1 -- -- 54
2019-02-20 18:00:00 11 0 Calma 7 Noroeste 0 -- -- 52
2019-02-20 17:00:00 11 0 Calma 10 Norte 0 -- -- 52
2019-02-20 16:00:00 10.8 2 Este 9 Sudeste 0 -- -- 53
2019-02-20 15:00:00 10.2 5 Norte 10 Norte 0.1 -- -- 57
2019-02-20 14:00:00 10.3 6 Norte 11 Norte 0 -- -- 57
2019-02-20 13:00:00 9.8 7 Noroeste 15 Norte 0 -- -- 59
2019-02-20 12:00:00 12.3 7 Norte 12 Norte 0 -- -- 51
2019-02-20 11:00:00 11 5 Norte 9 Norte 0 -- -- 56
2019-02-20 10:00:00 8.7 0 Calma 4 Sur 0.1 -- -- 59
2019-02-20 09:00:00 6.2 3 Sudoeste 7 Sudeste 0 -- -- 69
2019-02-20 08:00:00 4.6 5 Sudeste 6 Sudeste 0 -- -- 74
2019-02-20 07:00:00 4.4 5 Sudeste 7 Sudeste 0 -- -- 79
2019-02-20 06:00:00 4.4 4 Sudeste 9 Sudeste 0 -- -- 79
2019-02-20 05:00:00 4 5 Sudeste 8 Sudeste 0 -- -- 77
2019-02-20 04:00:00 3.7 6 Este 9 Sudeste 0 -- -- 75
2019-02-20 03:00:00 4.8 3 Este 8 Norte 0.1 -- -- 70
2019-02-20 02:00:00 6.1 0 Calma 14 Sur 0 -- -- 67
2019-02-20 01:00:00 7.4 9 Sudoeste 14 Sudoeste 0 -- -- 61
2019-02-20 00:00:00 7.5 5 Sur 9 Sur 0.1 -- -- 63
2019-02-19 23:00:00 7.2 2 Oeste 5 Sudoeste 0 -- -- 67
2019-02-19 22:00:00 6.8 4 Sudoeste 7 Sudoeste 0.1 -- -- 68
2019-02-19 21:00:00 5.9 3 Sudeste 7 Sudeste 0 -- -- 74
2019-02-19 20:00:00 6.4 0 Calma 17 Sur 1.6 -- -- 76
2019-02-19 19:00:00 8.2 7 Sur 12 Sur 0 -- -- 59
2019-02-19 18:00:00 9.8 4 Noroeste 14 Noroeste 0 -- -- 52
2019-02-19 17:00:00 11 8 Noroeste 13 Norte 0 -- -- 48
2019-02-19 16:00:00 11.5 4 Norte 14 Norte 0 -- -- 47
2019-02-19 15:00:00 11.2 6 Norte 14 Noroeste 0 -- -- 46
2019-02-19 14:00:00 11 4 Norte 14 Norte 0 -- -- 47
2019-02-19 13:00:00 11 5 Norte 13 Norte 0 -- -- 49
2019-02-19 12:00:00 10.4 5 Norte 12 Noroeste 0 -- -- 51
2019-02-19 11:00:00 9.9 5 Norte 9 Norte 0 -- -- 50
2019-02-19 10:00:00 8.5 4 Este 6 Este 0 -- -- 51
2019-02-19 09:00:00 6.1 6 Sudeste 7 Sudeste 0 -- -- 60
2019-02-19 08:00:00 4.1 6 Sudeste 7 Sudeste 0 -- -- 63
2019-02-19 07:00:00 3.6 3 Sudeste 8 Sudeste 0 -- -- 63
2019-02-19 06:00:00 4.4 0 Calma 6 Nordeste 0 -- -- 59
2019-02-19 05:00:00 6.1 2 Este 6 Norte 0 -- -- 53
2019-02-19 04:00:00 7.1 0 Calma 5 Sur 0 -- -- 52
2019-02-19 03:00:00 6.8 0 Calma 6 Sudoeste 0 -- -- 53
2019-02-19 02:00:00 6.8 4 Sudoeste 8 Sudoeste 0 -- -- 55
2019-02-19 01:00:00 5.7 6 Sudoeste 9 Sudoeste 0 -- -- 59
2019-02-19 00:00:00 6.3 6 Sudoeste 8 Sudoeste 0 -- -- 61
2019-02-18 23:00:00 6.2 0 Calma -- -- 0 -- -- 62
2019-02-18 22:00:00 6.5 0 Calma 3 Sudoeste 0 -- -- 62
2019-02-18 21:00:00 6.4 2 Sudoeste 5 Sudoeste 0 -- -- 61
2019-02-18 20:00:00 6.5 0 Calma 5 Sudoeste 0 -- -- 59
2019-02-18 19:00:00 7.6 5 Sudoeste 8 Noroeste 0 -- -- 55
2019-02-18 18:00:00 10.1 5 Noroeste 8 Noroeste 0 -- -- 49
2019-02-18 17:00:00 11.2 4 Noroeste 11 Norte 0 -- -- 47
2019-02-18 16:00:00 11.1 5 Noroeste 10 Noroeste 0 -- -- 47
2019-02-18 15:00:00 10.9 0 Calma 12 Nordeste 0 -- -- 47
2019-02-18 14:00:00 10.4 3 Norte 15 Norte 0 -- -- 49
2019-02-18 13:00:00 9.8 7 Norte 13 Norte 0 -- -- 49
2019-02-18 12:00:00 9.9 4 Norte 11 Norte 0 -- -- 49
2019-02-18 11:00:00 7.7 4 Norte 7 Norte 0 -- -- 51
2019-02-18 10:00:00 8.1 0 Calma 11 Sur 0 -- -- 45
2019-02-18 09:00:00 5.7 8 Sur 12 Sur 0 -- -- 47
2019-02-18 08:00:00 5.5 7 Sur 13 Sur 0 -- -- 48
2019-02-18 07:00:00 5.7 8 Sudoeste 17 Sur 0 -- -- 52
2019-02-18 06:00:00 6.8 10 Sur 17 Sur 0 -- -- 50
2019-02-18 05:00:00 7 9 Sur 15 Sur 0 -- -- 47
2019-02-18 04:00:00 6.8 11 Sur 18 Sur 0 -- -- 43
2019-02-18 03:00:00 7 12 Sur 17 Sur 0 -- -- 41
2019-02-18 02:00:00 6.5 11 Sur 16 Sur 0 -- -- 40
2019-02-18 01:00:00 6.7 10 Sur 13 Sur 0 -- -- 39
2019-02-18 00:00:00 7.5 8 Sur 12 Sur 0 -- -- 38
2019-02-17 23:00:00 8 9 Sur 12 Sur 0 -- -- 35
2019-02-17 22:00:00 7.6 8 Sur 10 Sur 0 -- -- 34
2019-02-17 21:00:00 7.7 5 Sur 9 Sur 0 -- -- 34
2019-02-17 20:00:00 8.1 6 Sur 10 Sur 0 -- -- 34
2019-02-17 19:00:00 9.2 4 Sur 7 Sur 0 -- -- 32
2019-02-17 18:00:00 11.5 5 Sur 13 Sur 0 -- -- 28
2019-02-17 17:00:00 13 6 Sudeste 22 Sudoeste 0 -- -- 26
2019-02-17 16:00:00 12.6 7 Sur 22 Sudeste 0 -- -- 25
2019-02-17 15:00:00 13.1 3 Sudeste 26 Sudeste 0 -- -- 26
2019-02-17 14:00:00 11.9 6 Sudeste 22 Sudeste 0 -- -- 26
2019-02-17 13:00:00 11.2 8 Sudeste 18 Sur 0 -- -- 30
2019-02-17 12:00:00 11.3 8 Sur 21 Sur 0 -- -- 31
2019-02-17 11:00:00 10.4 8 Sur 15 Sur 0 -- -- 33
2019-02-17 10:00:00 6.5 3 Noroeste 5 Noroeste 0 -- -- 41
2019-02-17 09:00:00 4.4 0 Calma 10 Sur 0 -- -- 46
2019-02-17 08:00:00 1.7 0 Calma 7 Sudoeste 0 -- -- 50
2019-02-17 07:00:00 2.1 0 Calma 12 Sur 0 -- -- 47
2019-02-17 06:00:00 3.1 0 Calma 20 Sur 0 -- -- 44
2019-02-17 05:00:00 7.3 6 Sur 25 Sur 0 -- -- 38
2019-02-17 04:00:00 5.3 0 Calma 15 Sudeste 0 -- -- 37
2019-02-17 03:00:00 6.4 5 Sur 27 Sur 0 -- -- 35
2019-02-17 02:00:00 7.5 17 Sur 24 Sur 0 -- -- 34
2019-02-17 01:00:00 7.2 13 Sur 24 Sur 0 -- -- 37
2019-02-17 00:00:00 8.2 10 Sur 17 Sur 0 -- -- 37
2019-02-16 23:00:00 7.4 5 Sudeste 12 Sudeste 0 -- -- 38
2019-02-16 22:00:00 6.7 0 Calma 12 Sudeste 0 -- -- 40
2019-02-16 21:00:00 7.7 6 Este 14 Este 0 -- -- 39
2019-02-16 20:00:00 7.8 4 Este 8 Sudeste 0 -- -- 40
2019-02-16 19:00:00 9.3 0 Calma 6 Este 0 -- -- 39
2019-02-16 18:00:00 12 0 Calma 12 Nordeste 0 -- -- 39
2019-02-16 17:00:00 13.6 4 Nordeste 15 Nordeste 0 -- -- 37
2019-02-16 16:00:00 13.2 5 Nordeste 13 Este 0 -- -- 40
2019-02-16 15:00:00 12.1 2 Sudeste 13 Nordeste 0 -- -- 46
2019-02-16 14:00:00 11.2 3 Norte 10 Este 0 -- -- 50
2019-02-16 13:00:00 9.3 3 Norte 11 Norte 0 -- -- 54
2019-02-16 12:00:00 7.7 4 Norte 11 Nordeste 0 -- -- 60
2019-02-16 11:00:00 4.7 3 Norte 10 Noroeste 0 -- -- 72
2019-02-16 10:00:00 2.4 3 Noroeste 6 Noroeste 0 -- -- 79
2019-02-16 09:00:00 0.6 3 Oeste 8 Sudoeste 0 -- -- 86
2019-02-16 08:00:00 -0.4 2 Oeste 8 Oeste 0 -- -- 85
2019-02-16 07:00:00 1.2 0 Calma 5 Sudoeste 0 -- -- 81
2019-02-16 06:00:00 1.1 0 Calma 10 Este 0 -- -- 81
2019-02-16 05:00:00 1.6 0 Calma 8 Sudoeste 0 -- -- 79
2019-02-16 04:00:00 1.4 5 Oeste 14 Oeste 0 -- -- 75
2019-02-16 03:00:00 2.8 5 Oeste 9 Oeste 0 -- -- 65
2019-02-16 02:00:00 4.3 0 Calma 4 Oeste 0 -- -- 60
2019-02-16 01:00:00 5.1 0 Calma 17 Este 0 -- -- 57
2019-02-16 00:00:00 6.8 12 Sudeste 27 Este 0 -- -- 52
2019-02-15 23:00:00 7.8 10 Este 30 Este 0 -- -- 47
2019-02-15 22:00:00 8.6 11 Este 27 Este 0 -- -- 48
2019-02-15 21:00:00 8.1 8 Sudeste 17 Este 0 -- -- 46
2019-02-15 20:00:00 7.7 0 Calma 4 Este 0 -- -- 48
2019-02-15 19:00:00 8.8 0 Calma 5 Norte 0 -- -- 45
2019-02-15 18:00:00 11.5 4 Norte 12 Nordeste 0 -- -- 40
2019-02-15 17:00:00 13.1 5 Nordeste 15 Norte 0 -- -- 38
2019-02-15 16:00:00 13.5 5 Norte 16 Norte 0 -- -- 40
2019-02-15 15:00:00 12.6 7 Norte 16 Norte 0 -- -- 43
2019-02-15 14:00:00 11.1 6 Norte 14 Norte 0 -- -- 46
2019-02-15 13:00:00 10 6 Norte 14 Noroeste 0 -- -- 50
2019-02-15 12:00:00 9.6 7 Norte 12 Norte 0 -- -- 49
2019-02-15 11:00:00 8.2 5 Norte 10 Norte 0 -- -- 51
2019-02-15 10:00:00 8.3 0 Calma -- -- 0 -- -- 49
2019-02-15 09:00:00 6.9 0 Calma -- -- 0 -- -- 52
2019-02-15 08:00:00 5.3 0 Calma -- -- 0 -- -- 54
2019-02-15 07:00:00 5.3 0 Calma 4 Oeste 0 -- -- 55
2019-02-15 06:00:00 4.7 0 Calma -- -- 0 -- -- 56
2019-02-15 05:00:00 4.9 0 Calma 6 Sudoeste 0 -- -- 56
2019-02-15 04:00:00 4.7 2 Oeste 7 Noroeste 0 -- -- 53
2019-02-15 03:00:00 7.3 0 Calma 5 Sudoeste 0 -- -- 49
2019-02-15 02:00:00 6.3 0 Calma -- -- 0 -- -- 50
2019-02-15 01:00:00 7.5 0 Calma -- -- 0 -- -- 47
2019-02-15 00:00:00 7.2 0 Calma 5 Este 0 -- -- 49
2019-02-14 23:00:00 5.5 2 Oeste 8 Sudoeste 0 -- -- 50
2019-02-14 22:00:00 7 0 Calma -- -- 0 -- -- 49
2019-02-14 21:00:00 7.1 0 Calma 7 Sudoeste 0 -- -- 49
2019-02-14 20:00:00 6.9 4 Sudoeste 8 Sudoeste 0 -- -- 49
2019-02-14 19:00:00 8.9 2 Este 8 Nordeste 0 -- -- 44
2019-02-14 18:00:00 11.7 3 Nordeste 9 Nordeste 0 -- -- 42
2019-02-14 17:00:00 12.9 3 Sudeste 12 Norte 0 -- -- 40
2019-02-14 16:00:00 12.8 4 Este 12 Norte 0 -- -- 40
2019-02-14 15:00:00 11.4 4 Noroeste 12 Noroeste 0 -- -- 42
2019-02-14 14:00:00 10.8 6 Norte 12 Norte 0 -- -- 44
2019-02-14 13:00:00 9.1 3 Norte 10 Norte 0 -- -- 46
2019-02-14 12:00:00 8.3 4 Norte 9 Noroeste 0 -- -- 47
2019-02-14 11:00:00 6.8 5 Norte 7 Norte 0 -- -- 46
2019-02-14 10:00:00 4.6 0 Calma 4 Sudoeste 0 -- -- 47
2019-02-14 09:00:00 2.7 0 Calma -- -- 0 -- -- 50
2019-02-14 08:00:00 2 0 Calma 8 Sudeste 0 -- -- 48
2019-02-14 07:00:00 4.1 0 Calma 5 Sudoeste 0 -- -- 43
2019-02-14 06:00:00 4.1 3 Sudoeste 9 Sudoeste 0 -- -- 43
2019-02-14 05:00:00 4 4 Sudoeste 10 Oeste 0 -- -- 44
2019-02-14 04:00:00 3.9 6 Oeste 9 Oeste 0 -- -- 38
2019-02-14 03:00:00 7.5 3 Sudoeste 14 Sur 0 -- -- 32
2019-02-14 02:00:00 7.7 8 Sur 12 Sur 0 -- -- 31
2019-02-14 01:00:00 6.7 0 Calma 6 Sudoeste 0 -- -- 29
2019-02-14 00:00:00 7.4 0 Calma 5 Sudoeste 0 -- -- 28
2019-02-13 23:00:00 6.7 0 Calma 8 Sudeste 0 -- -- 31
2019-02-13 22:00:00 6.6 5 Sudeste 11 Sudeste 0 -- -- 43
2019-02-13 21:00:00 7.1 0 Calma 8 Sudoeste 0 -- -- 49
2019-02-13 20:00:00 6.8 4 Sudoeste 10 Sudoeste 0 -- -- 47
2019-02-13 19:00:00 8.9 4 Sudoeste 10 Norte 0 -- -- 43
2019-02-13 18:00:00 12 8 Norte 13 Nordeste 0 -- -- 39
2019-02-13 17:00:00 13.1 8 Nordeste 14 Nordeste 0 -- -- 38
2019-02-13 16:00:00 13.7 6 Nordeste 15 Noroeste 0 -- -- 38
2019-02-13 15:00:00 13 6 Nordeste 17 Norte 0 -- -- 39
2019-02-13 14:00:00 11.9 6 Nordeste 18 Norte 0 -- -- 42
2019-02-13 13:00:00 11.5 6 Nordeste 14 Nordeste 0 -- -- 45
2019-02-13 12:00:00 11.6 6 Norte 13 Norte 0 -- -- 45
2019-02-13 11:00:00 10.4 4 Norte 6 Norte 0 -- -- 48
2019-02-13 10:00:00 7.8 0 Calma -- -- 0 -- -- 51
2019-02-13 09:00:00 6.6 0 Calma -- -- 0 -- -- 54
2019-02-13 08:00:00 5 0 Calma -- -- 0 -- -- 56
2019-02-13 07:00:00 4.8 0 Calma 7 Sudeste 0 -- -- 55
2019-02-13 06:00:00 4.8 0 Calma 6 Oeste 0 -- -- 55
2019-02-13 05:00:00 5.4 4 Sudoeste 6 Oeste 0 -- -- 54
2019-02-13 04:00:00 5.6 0 Calma 0 Calma 0 -- -- 55
2019-02-13 03:00:00 6 0 Calma 0 Calma 0 -- -- 55
2019-02-13 02:00:00 5.5 0 Calma 0 Calma 0 -- -- 56
2019-02-13 01:00:00 6 0 Calma -- -- 0 -- -- 54
2019-02-13 00:00:00 6.1 0 Calma -- -- 0 -- -- 54
2019-02-12 23:00:00 5.8 0 Calma 6 Sudoeste 0 -- -- 55
2019-02-12 22:00:00 5.4 5 Sudoeste 6 Sudoeste 0 -- -- 54
2019-02-12 21:00:00 5.5 5 Sudoeste 6 Sudoeste 0 -- -- 53
2019-02-12 20:00:00 6.5 0 Calma 6 Sudoeste 0 -- -- 50
2019-02-12 19:00:00 7.7 0 Calma 12 Norte 0 -- -- 47
2019-02-12 18:00:00 10.5 5 Noroeste 10 Norte 0 -- -- 40
2019-02-12 17:00:00 11.9 4 Noroeste 12 Este 0 -- -- 39
2019-02-12 16:00:00 11.5 4 Nordeste 14 Nordeste 0 -- -- 40
2019-02-12 15:00:00 10.8 8 Norte 17 Norte 0 -- -- 41
2019-02-12 14:00:00 10.9 10 Norte 17 Nordeste 0 -- -- 42
2019-02-12 13:00:00 9.7 6 Norte 15 Norte 0 -- -- 43
2019-02-12 12:00:00 8.8 8 Este 15 Este 0 -- -- 47
2019-02-12 11:00:00 8 5 Este 12 Este 0 -- -- 46
2019-02-12 10:00:00 7.4 2 Este 10 Este 0 -- -- 36
2019-02-12 09:00:00 4.2 0 Calma 7 Sudoeste 0 -- -- 56
2019-02-12 08:00:00 1.4 5 Sudoeste 9 Sudoeste 0 -- -- 61
2019-02-12 07:00:00 2.9 0 Calma -- -- 0 -- -- 55
2019-02-12 06:00:00 1.2 0 Calma 7 Sudoeste 0 -- -- 61
2019-02-12 05:00:00 1.5 0 Calma 4 Sudoeste 0 -- -- 58
2019-02-12 04:00:00 1.9 0 Calma 7 Oeste 0 -- -- 56
2019-02-12 03:00:00 2 6 Oeste 13 Sudoeste 0 -- -- 54
2019-02-12 02:00:00 2.4 3 Sudoeste 9 Sudoeste 0 -- -- 48
2019-02-12 01:00:00 4 0 Calma 7 Este 0 -- -- 42
2019-02-12 00:00:00 4.6 0 Calma 11 Nordeste 0 -- -- 39
2019-02-11 23:00:00 5.6 4 Nordeste 10 Nordeste 0 -- -- 37
2019-02-11 22:00:00 6 0 Calma 8 Sudeste 0 -- -- 36
2019-02-11 21:00:00 6 2 Sudeste 6 Sudeste 0 -- -- 37
2019-02-11 20:00:00 6.7 0 Calma -- -- 0 -- -- 38
2019-02-11 19:00:00 8.2 0 Calma 10 Nordeste 0 -- -- 37
2019-02-11 18:00:00 9.9 6 Nordeste 13 Norte 0 -- -- 37
2019-02-11 17:00:00 11.5 7 Nordeste 15 Nordeste 0 -- -- 37
2019-02-11 16:00:00 11.4 6 Norte 17 Nordeste 0 -- -- 38
2019-02-11 15:00:00 10.6 4 Este 15 Norte 0 -- -- 39
2019-02-11 14:00:00 9.8 6 Nordeste 15 Norte 0 -- -- 41
2019-02-11 13:00:00 9.1 9 Norte 15 Norte 0 -- -- 42
2019-02-11 12:00:00 8.6 6 Norte 14 Noroeste 0 -- -- 42
2019-02-11 11:00:00 6.6 6 Oeste 13 Oeste 0 -- -- 50
2019-02-11 10:00:00 6.1 4 Norte 10 Nordeste 0 -- -- 58
2019-02-11 09:00:00 5.4 0 Calma 9 Sudeste 0 -- -- 69
2019-02-11 08:00:00 5.1 7 Sudeste 16 Nordeste 0 -- -- 77
2019-02-11 07:00:00 5.6 0 Calma 10 Sudoeste 0 -- -- 76
2019-02-11 06:00:00 6.2 7 Sudoeste 15 Sudoeste 0 -- -- 71
2019-02-11 05:00:00 6.5 10 Sudoeste 14 Sudoeste 0 -- -- 72
2019-02-11 04:00:00 6.7 7 Sudoeste 13 Oeste 0 -- -- 74
2019-02-11 03:00:00 7.1 9 Oeste 19 Sudoeste 0 -- -- 75
2019-02-11 02:00:00 7.8 12 Sudoeste 30 Sudoeste 0 -- -- 78
2019-02-11 01:00:00 7.6 10 Sudoeste 27 Oeste 0 -- -- 86
2019-02-11 00:00:00 7.9 14 Sudoeste 36 Sudoeste 0 -- -- 85
2019-02-10 23:00:00 7.5 25 Sudoeste 50 Sudoeste 0 -- -- 88
2019-02-10 22:00:00 8 30 Sudoeste 48 Sudoeste 0 -- -- 82
2019-02-10 21:00:00 7.3 30 Sudoeste 46 Sudoeste 0 -- -- 84
2019-02-10 20:00:00 7.3 25 Sudoeste 41 Sudoeste 0 -- -- 81
2019-02-10 19:00:00 7.6 22 Sudoeste 37 Sudoeste 0 -- -- 72
2019-02-10 18:00:00 8.2 14 Sudoeste 41 Sudoeste 0 -- -- 69
2019-02-10 17:00:00 8.3 24 Sudoeste 47 Sudoeste 0 -- -- 65
2019-02-10 16:00:00 7.4 18 Sudoeste 36 Sudoeste 0 -- -- 71
2019-02-10 15:00:00 7.5 14 Sudoeste 31 Sudoeste 0 -- -- 69
2019-02-10 14:00:00 7.3 3 Sudoeste 31 Sudoeste 0 -- -- 68
2019-02-10 13:00:00 6.5 17 Sudoeste 39 Sudoeste 0 -- -- 69
2019-02-10 12:00:00 6.2 26 Sudoeste 48 Sudoeste 0 -- -- 70
2019-02-10 11:00:00 6.3 28 Sudoeste 44 Sudoeste 0 -- -- 69
2019-02-10 10:00:00 6.4 23 Sudoeste 48 Oeste 0 -- -- 66
2019-02-10 09:00:00 5.7 23 Sudoeste 36 Sudoeste 0 -- -- 68
2019-02-10 08:00:00 5.1 13 Sudoeste 25 Sudoeste 0 -- -- 70
2019-02-10 07:00:00 5 13 Oeste 28 Sudoeste 0 -- -- 69
2019-02-10 06:00:00 5.2 17 Oeste 29 Oeste 0 -- -- 69
2019-02-10 05:00:00 5.1 9 Oeste 27 Oeste 0 -- -- 71
2019-02-10 04:00:00 5.6 16 Oeste 33 Oeste 0 -- -- 70
2019-02-10 03:00:00 5.7 10 Oeste 37 Noroeste 0 -- -- 71
2019-02-10 02:00:00 6.2 5 Noroeste 24 Oeste 0 -- -- 67
2019-02-10 01:00:00 5 3 Sur 15 Este 0 -- -- 75
2019-02-10 00:00:00 4.3 8 Este 18 Sudoeste 0 -- -- 65
2019-02-09 23:00:00 6.7 4 Sudoeste 18 Sur 0 -- -- 59
2019-02-09 22:00:00 6.1 0 Calma 14 Noroeste 0 -- -- 44
2019-02-09 21:00:00 6.8 6 Sudoeste 24 Sudoeste 0 -- -- 35
2019-02-09 20:00:00 7 6 Sudoeste 27 Sur 0 -- -- 38
2019-02-09 19:00:00 7.8 13 Sudoeste 26 Sudoeste 0 -- -- 37
2019-02-09 18:00:00 9.7 4 Sudoeste 23 Sur 0 -- -- 36
2019-02-09 17:00:00 11.2 13 Sudoeste 23 Sudoeste 0 -- -- 28
2019-02-09 16:00:00 12.9 10 Sudoeste 21 Sur 0 -- -- 26
2019-02-09 15:00:00 12.1 13 Sudoeste 27 Sudoeste 0 -- -- 26
2019-02-09 14:00:00 11.6 15 Sudoeste 25 Sudoeste 0 -- -- 27
2019-02-09 13:00:00 11.2 4 Oeste 14 Sudoeste 0 -- -- 35
2019-02-09 12:00:00 9.8 5 Norte 14 Este 0 -- -- 46
2019-02-09 11:00:00 6.9 4 Norte 8 Norte 0 -- -- 54
2019-02-09 10:00:00 5.2 3 Sur 5 Sudeste 0 -- -- 77
2019-02-09 09:00:00 3.9 0 Calma 7 Este 0 -- -- 87
2019-02-09 08:00:00 2.1 3 Sudoeste 10 Sudoeste 0 -- -- 87
2019-02-09 07:00:00 1.8 5 Sudoeste 14 Este 0 -- -- 87
2019-02-09 06:00:00 2.2 0 Calma 8 Este 0 -- -- 86
2019-02-09 05:00:00 2.7 0 Calma 18 Sudeste 0 -- -- 83
2019-02-09 04:00:00 3 5 Sudeste 10 Sudeste 0 -- -- 77
2019-02-09 03:00:00 4.3 9 Sudoeste 19 Sudoeste 0 -- -- 62
2019-02-09 02:00:00 5.2 5 Noroeste 39 Sudoeste 0 -- -- 51
2019-02-09 01:00:00 4.7 10 Oeste 21 Sudoeste 0 -- -- 51
2019-02-09 00:00:00 6.5 4 Sudoeste 11 Oeste 0 -- -- 47
2019-02-08 23:00:00 6.6 5 Sudoeste 10 Sudoeste 0 -- -- 43
2019-02-08 22:00:00 6.6 7 Sudoeste 18 Sur 0 -- -- 41
2019-02-08 21:00:00 6.7 8 Sudoeste 14 Sudoeste 0 -- -- 48
2019-02-08 20:00:00 7.3 0 Calma 12 Nordeste 0 -- -- 42
2019-02-08 19:00:00 8.3 6 Norte 28 Sur 0 -- -- 38
2019-02-08 18:00:00 10.3 2 Sudoeste 22 Oeste 0 -- -- 38
2019-02-08 17:00:00 12.9 10 Sudoeste 27 Sudoeste 0 -- -- 35
2019-02-08 16:00:00 13.6 12 Oeste 26 Sudoeste 0 -- -- 38
2019-02-08 15:00:00 13.4 14 Sudoeste 46 Sudoeste 0 -- -- 37
2019-02-08 14:00:00 12.8 17 Sudoeste 29 Sudoeste 0 -- -- 40
2019-02-08 13:00:00 11.9 18 Sudoeste 32 Sudoeste 0 -- -- 38
2019-02-08 12:00:00 11.3 22 Sudoeste 30 Sudoeste 0 -- -- 41
2019-02-08 11:00:00 9.4 2 Noroeste 7 Noroeste 0 -- -- 56
2019-02-08 10:00:00 6.7 0 Calma 7 Norte 0 -- -- 57
2019-02-08 09:00:00 4.6 2 Sudoeste 8 Sur 0 -- -- 60
2019-02-08 08:00:00 4.2 3 Este 19 Sur 0 -- -- 61
2019-02-08 07:00:00 4.3 9 Sur 12 Sur 0 -- -- 66
2019-02-08 06:00:00 4.9 0 Calma 4 Sudoeste 0 -- -- 68
2019-02-08 05:00:00 4.5 4 Sudoeste 7 Sudoeste 0 -- -- 65
2019-02-08 04:00:00 4.7 0 Calma -- -- 0 -- -- 57
2019-02-08 03:00:00 5 3 Sudeste 10 Sur 0 -- -- 56
2019-02-08 02:00:00 5.3 7 Sur 10 Sur 0 -- -- 56
2019-02-08 01:00:00 5.3 0 Calma 6 Sudoeste 0 -- -- 57
2019-02-08 00:00:00 6 3 Sudoeste 5 Sudoeste 0 -- -- 56
2019-02-07 23:00:00 6.3 0 Calma -- -- 0 -- -- 54
2019-02-07 22:00:00 6.6 0 Calma -- -- 0 -- -- 53
2019-02-07 21:00:00 7.3 0 Calma -- -- 0 -- -- 51
2019-02-07 20:00:00 8 0 Calma 5 Sudoeste 0 -- -- 49
2019-02-07 19:00:00 9 0 Calma 6 Sudoeste 0 -- -- 45
2019-02-07 18:00:00 11.3 3 Noroeste 11 Norte 0 -- -- 38
2019-02-07 17:00:00 13.7 4 Norte 15 Nordeste 0 -- -- 34
2019-02-07 16:00:00 14.4 4 Norte 13 Norte 0 -- -- 33
2019-02-07 15:00:00 14.4 2 Este 11 Norte 0 -- -- 33
2019-02-07 14:00:00 12.2 4 Este 13 Nordeste 0 -- -- 34
2019-02-07 13:00:00 11.8 4 Norte 14 Este 0 -- -- 36
2019-02-07 12:00:00 12 4 Nordeste 12 Este 0 -- -- 38
2019-02-07 11:00:00 10.1 6 Este 10 Sudeste 0 -- -- 44
2019-02-07 10:00:00 9.1 5 Este 9 Sudeste 0 -- -- 48
2019-02-07 09:00:00 6.3 6 Sudeste 10 Sudeste 0 -- -- 58
2019-02-07 08:00:00 5.2 0 Calma 6 Sudeste 0 -- -- 58
2019-02-07 07:00:00 5.5 0 Calma -- -- 0 -- -- 58
2019-02-07 06:00:00 5.4 0 Calma 10 Este 0 -- -- 60
2019-02-07 05:00:00 4.8 7 Este 10 Este 0 -- -- 61
2019-02-07 04:00:00 5.5 7 Sudeste 10 Sudeste 0 -- -- 63
2019-02-07 03:00:00 5 6 Sudeste 9 Sudeste 0 -- -- 62
2019-02-07 02:00:00 5.1 8 Sudeste 9 Sudeste 0 -- -- 61
2019-02-07 01:00:00 6 0 Calma 6 Sur 0 -- -- 59
2019-02-07 00:00:00 5.5 4 Sudeste 7 Sudeste 0 -- -- 60
2019-02-06 23:00:00 6.3 0 Calma 7 Sudeste 0 -- -- 56
2019-02-06 22:00:00 6.4 3 Sudeste 7 Este 0 -- -- 55
2019-02-06 21:00:00 7.9 4 Este 6 Este 0 -- -- 51
2019-02-06 20:00:00 8.8 0 Calma 6 Sudeste 0 -- -- 48
2019-02-06 19:00:00 9.8 0 Calma -- -- 0 -- -- 46
2019-02-06 18:00:00 11.5 0 Calma 13 Norte 0 -- -- 41
2019-02-06 17:00:00 14.5 5 Noroeste 14 Noroeste 0 -- -- 37
2019-02-06 16:00:00 14.8 6 Norte 15 Noroeste 0 -- -- 37
2019-02-06 15:00:00 15 4 Norte 16 Noroeste 0 -- -- 39
2019-02-06 14:00:00 14.6 3 Noroeste 16 Sudoeste 0 -- -- 38
2019-02-06 13:00:00 13.5 6 Sudeste 15 Sudeste 0 -- -- 40
2019-02-06 12:00:00 13.2 5 Nordeste 12 Nordeste 0 -- -- 40
2019-02-06 11:00:00 11.7 0 Calma 5 Noroeste 0 -- -- 45
2019-02-06 10:00:00 9.7 0 Calma 17 Sur 0 -- -- 47
2019-02-06 09:00:00 7.9 8 Sur 14 Sur 0 -- -- 50
2019-02-06 08:00:00 7 0 Calma 7 Sudeste 0 -- -- 53
2019-02-06 07:00:00 6.4 5 Sudeste 9 Sudeste 0 -- -- 53
2019-02-06 06:00:00 6.2 6 Sudeste 8 Sur 0 -- -- 53
2019-02-06 05:00:00 6.6 6 Sur 8 Sudeste 0 -- -- 50
2019-02-06 04:00:00 7 5 Sudeste 8 Sur 0 -- -- 50
2019-02-06 03:00:00 7.3 0 Calma -- -- 0 -- -- 42
2019-02-06 02:00:00 6.9 0 Calma 4 Sudoeste 0 -- -- 38
2019-02-06 01:00:00 6.9 0 Calma 5 Sudoeste 0 -- -- 40
2019-02-06 00:00:00 6.9 3 Sudoeste 6 Sudoeste 0 -- -- 39
2019-02-05 23:00:00 6.9 4 Sudoeste 8 Sudoeste 0 -- -- 42
2019-02-05 22:00:00 6.7 3 Sudoeste 6 Sudoeste 0 -- -- 52
2019-02-05 21:00:00 7.3 0 Calma 5 Sudoeste 0 -- -- 49
2019-02-05 20:00:00 7.8 0 Calma 5 Sudoeste 0 -- -- 46
2019-02-05 19:00:00 8.7 3 Sudoeste 6 Sudoeste 0 -- -- 43
2019-02-05 18:00:00 11.2 4 Noroeste 12 Norte 0 -- -- 39
2019-02-05 17:00:00 12.6 6 Noroeste 17 Nordeste 0 -- -- 36
2019-02-05 16:00:00 13.1 8 Noroeste 14 Noroeste 0 -- -- 35
2019-02-05 15:00:00 13.5 2 Noroeste 13 Norte 0 -- -- 35
2019-02-05 14:00:00 12.6 2 Nordeste 14 Noroeste 0 -- -- 36
2019-02-05 13:00:00 11.8 3 Norte 12 Noroeste 0 -- -- 36
2019-02-05 12:00:00 11.2 4 Norte 11 Norte 0 -- -- 37
2019-02-05 11:00:00 9.5 3 Sur 6 Sudoeste 0 -- -- 39
2019-02-05 10:00:00 7.5 0 Calma -- -- 0 -- -- 43
2019-02-05 09:00:00 6.2 0 Calma 6 Sudoeste 0 -- -- 45
2019-02-05 08:00:00 5 0 Calma 10 Sudoeste 0 -- -- 45
2019-02-05 07:00:00 5.1 3 Sudoeste 6 Sudoeste 0 -- -- 45
2019-02-05 06:00:00 4.9 2 Sudeste 6 Sudeste 0 -- -- 44
2019-02-05 05:00:00 4.7 2 Sudeste 6 Norte 0 -- -- 44
2019-02-05 04:00:00 6.2 4 Nordeste 7 Nordeste 0 -- -- 42
2019-02-05 03:00:00 6.6 0 Calma 8 Sudoeste 0 -- -- 42
2019-02-05 02:00:00 6.8 0 Calma 11 Sudoeste 0 -- -- 40
2019-02-05 01:00:00 5.4 0 Calma 7 Sudoeste 0 -- -- 40
2019-02-05 00:00:00 3.8 0 Calma 6 Este 0 -- -- 48
2019-02-04 23:00:00 4.1 0 Calma -- -- 0 -- -- 47
2019-02-04 22:00:00 4.6 0 Calma 8 Sudeste 0 -- -- 48
2019-02-04 21:00:00 3.9 0 Calma 7 Sudeste 0 -- -- 48
2019-02-04 20:00:00 5.3 0 Calma -- -- 0 -- -- 43
2019-02-04 19:00:00 6.4 0 Calma 6 Norte 0 -- -- 39
2019-02-04 18:00:00 8.7 3 Norte 8 Noroeste 0 -- -- 33
2019-02-04 17:00:00 10.5 5 Norte 14 Norte 0 -- -- 29
2019-02-04 16:00:00 11.7 6 Norte 13 Noroeste 0 -- -- 29
2019-02-04 15:00:00 11.4 0 Calma 12 Norte 0 -- -- 29
2019-02-04 14:00:00 9.5 3 Noroeste 9 Norte 0 -- -- 29
2019-02-04 13:00:00 8 4 Norte 11 Norte 0 -- -- 30
2019-02-04 12:00:00 7 0 Calma 9 Nordeste 0 -- -- 33
2019-02-04 11:00:00 6.2 6 Norte 10 Norte 0 -- -- 33
2019-02-04 10:00:00 4.8 0 Calma -- -- 0 -- -- 35
2019-02-04 09:00:00 2.3 0 Calma 8 Sudeste 0 -- -- 39
2019-02-04 08:00:00 1.8 6 Sudeste 8 Sudeste 0 -- -- 40
2019-02-04 07:00:00 1.6 0 Calma 11 Sudeste 0 -- -- 43
2019-02-04 06:00:00 0.9 3 Sudeste 8 Sudeste 0 -- -- 46
2019-02-04 05:00:00 1.2 0 Calma 7 Sudoeste 0 -- -- 49
2019-02-04 04:00:00 0.7 3 Sudoeste 9 Sudoeste 0 -- -- 53
2019-02-04 03:00:00 -0.2 6 Oeste 11 Oeste 0 -- -- 57
2019-02-04 02:00:00 0.5 2 Oeste 8 Nordeste 0 -- -- 55
2019-02-04 01:00:00 0.1 3 Sudeste 8 Sur 0 -- -- 56
2019-02-04 00:00:00 0 0 Calma 8 Sudoeste 0 -- -- 57
2019-02-03 23:00:00 0 0 Calma 11 Oeste 0 -- -- 57
2019-02-03 22:00:00 0.4 0 Calma 11 Oeste 0 -- -- 54
2019-02-03 21:00:00 1 3 Norte 13 Oeste 0 -- -- 51
2019-02-03 20:00:00 1.2 2 Oeste 13 Oeste 0 -- -- 49
2019-02-03 19:00:00 1.6 5 Oeste 15 Norte 0 -- -- 45
2019-02-03 18:00:00 3.7 15 Norte 29 Nordeste 0 -- -- 38
2019-02-03 17:00:00 5.1 14 Norte 27 Norte 0 -- -- 36
2019-02-03 16:00:00 5.3 15 Norte 32 Norte 0 -- -- 36
2019-02-03 15:00:00 4.9 19 Norte 44 Norte 0 -- -- 37
2019-02-03 14:00:00 4.4 16 Noroeste 34 Norte 0 -- -- 38
2019-02-03 13:00:00 3.7 17 Norte 34 Norte 0 -- -- 39
2019-02-03 12:00:00 3.3 18 Norte 35 Noroeste 0 -- -- 40
2019-02-03 11:00:00 1.9 18 Noroeste 33 Noroeste 0 -- -- 47
2019-02-03 10:00:00 0.7 11 Noroeste 17 Oeste 0 -- -- 55
2019-02-03 09:00:00 -1.1 2 Oeste 16 Oeste 0 -- -- 64
2019-02-03 08:00:00 -1.8 6 Oeste 10 Oeste 0 -- -- 64
2019-02-03 07:00:00 -1.7 5 Sudoeste 9 Oeste 0 -- -- 62
2019-02-03 06:00:00 -1 5 Oeste 11 Oeste 0 -- -- 58
2019-02-03 05:00:00 -0.7 0 Calma 8 Noroeste 0 -- -- 56
2019-02-03 04:00:00 -1.2 2 Sudeste 12 Oeste 0 -- -- 57
2019-02-03 03:00:00 -0.1 11 Oeste 22 Oeste 0 -- -- 52
2019-02-03 02:00:00 0.6 16 Oeste 23 Oeste 0 -- -- 51
2019-02-03 01:00:00 0.6 14 Oeste 20 Oeste 0 -- -- 51
2019-02-03 00:00:00 0.7 13 Oeste 19 Oeste 0 -- -- 50
2019-02-02 23:00:00 0.1 9 Oeste 21 Oeste 0 -- -- 49
2019-02-02 22:00:00 0.8 12 Oeste 21 Oeste 0 -- -- 49
2019-02-02 21:00:00 0.3 9 Oeste 18 Oeste 0 -- -- 51
2019-02-02 20:00:00 0.8 11 Oeste 17 Oeste 0 -- -- 49
2019-02-02 19:00:00 1.6 7 Noroeste 31 Noroeste 0 -- -- 44
2019-02-02 18:00:00 3.5 19 Noroeste 49 Noroeste 0 -- -- 36
2019-02-02 17:00:00 4.9 22 Noroeste 50 Norte 0 -- -- 35
2019-02-02 16:00:00 5.1 21 Noroeste 38 Oeste 0 -- -- 35
2019-02-02 15:00:00 5.2 17 Noroeste 42 Noroeste 0 -- -- 36
2019-02-02 14:00:00 4.8 20 Noroeste 38 Noroeste 0 -- -- 36
2019-02-02 13:00:00 5.3 23 Noroeste 47 Noroeste 0 -- -- 37
2019-02-02 12:00:00 4.4 22 Noroeste 51 Oeste 0 -- -- 38
2019-02-02 11:00:00 3.2 21 Noroeste 40 Noroeste 0 -- -- 39
2019-02-02 10:00:00 2.7 21 Noroeste 37 Oeste 0 -- -- 42
2019-02-02 09:00:00 1.1 18 Oeste 29 Oeste 0 -- -- 53
2019-02-02 08:00:00 1.4 19 Oeste 34 Oeste 0 -- -- 52
2019-02-02 07:00:00 1.6 19 Oeste 37 Oeste 0 -- -- 55
2019-02-02 06:00:00 1.8 23 Oeste 44 Oeste 0 -- -- 57
2019-02-02 05:00:00 2 24 Oeste 46 Oeste 0 -- -- 59
2019-02-02 04:00:00 2.4 22 Oeste 51 Oeste 0 -- -- 58
2019-02-02 03:00:00 2.6 25 Oeste 49 Oeste 0 -- -- 57
2019-02-02 02:00:00 2.7 24 Oeste 47 Oeste 0 -- -- 57
2019-02-02 01:00:00 2.6 21 Oeste 46 Oeste 0 -- -- 55
2019-02-02 00:00:00 2.7 25 Oeste 61 Oeste 0 -- -- 60
2019-02-01 23:00:00 3.1 24 Oeste 70 Oeste 0 -- -- 61
2019-02-01 22:00:00 3 33 Oeste 64 Oeste 0 -- -- 62
2019-02-01 21:00:00 2.8 29 Oeste 75 Oeste 0 -- -- 61
2019-02-01 20:00:00 3 35 Oeste 75 Oeste 0 -- -- 58
2019-02-01 19:00:00 3.2 34 Oeste 67 Oeste 0.1 -- -- 60
2019-02-01 18:00:00 2.8 39 Oeste 72 Sudoeste 0.4 -- -- 63
2019-02-01 17:00:00 2.2 35 Oeste 69 Sudoeste 2.8 -- -- 77
2019-02-01 16:00:00 4.3 24 Sudoeste 75 Sudoeste 1.2 -- -- 78
2019-02-01 15:00:00 4.3 35 Sudoeste 74 Sudoeste 0.9 -- -- 78
2019-02-01 14:00:00 4.6 39 Sudoeste 71 Sudoeste 0.3 -- -- 69
2019-02-01 13:00:00 5 38 Sudoeste 68 Sudoeste 0.1 -- -- 65
2019-02-01 12:00:00 4 32 Sudoeste 54 Sudoeste 0 -- -- 72
2019-02-01 11:00:00 4.2 33 Sudoeste 63 Oeste 0.1 -- -- 64
2019-02-01 10:00:00 4 29 Sudoeste 62 Oeste -- -- -- 66
2019-02-01 09:00:00 4.1 20 Sudoeste 55 Oeste 0.3 -- -- 78
2019-02-01 08:00:00 4.7 21 Oeste 42 Oeste 0.2 -- -- 75
2019-02-01 07:00:00 5 18 Sudoeste 55 Sudoeste 0 -- -- 73
2019-02-01 06:00:00 5.3 23 Oeste 43 Oeste 0 -- -- 75
2019-02-01 05:00:00 6.6 22 Oeste 69 Sudoeste 3.2 -- -- 82
2019-02-01 04:00:00 7.5 41 Sudoeste 94 Sudoeste 4 -- -- 83
2019-02-01 03:00:00 7.9 34 Sudoeste 78 Sudoeste 2.6 -- -- 84
2019-02-01 02:00:00 7.7 25 Sudoeste 61 Sudoeste 2 -- -- 85
2019-02-01 01:00:00 7.4 21 Sudoeste 53 Sudoeste 4.2 -- -- 86
2019-02-01 00:00:00 7.5 24 Sudoeste 57 Sudoeste 4.1 -- -- 85
2019-01-31 23:00:00 7.4 26 Sudoeste 76 Oeste 1.9 -- -- 85
2019-01-31 22:00:00 7.1 34 Sudoeste 70 Sudoeste 2.5 -- -- 85
2019-01-31 21:00:00 6.9 42 Sudoeste 79 Oeste 0.8 -- -- 85
2019-01-31 20:00:00 7.7 42 Sudoeste 74 Sudoeste 0.9 -- -- 81
2019-01-31 19:00:00 8.2 31 Sudoeste 60 Sudoeste 1.6 -- -- 84
2019-01-31 18:00:00 8.1 38 Sudoeste 78 Sudoeste 0.4 -- -- 84
2019-01-31 17:00:00 8.5 25 Sudoeste 57 Sudoeste 2.3 -- -- 83
2019-01-31 16:00:00 8.5 28 Sudoeste 55 Sudoeste 1.3 -- -- 82
2019-01-31 15:00:00 8.2 31 Sudoeste 63 Sudoeste 0.5 -- -- 80
2019-01-31 14:00:00 7.9 36 Sudoeste 64 Sudoeste 0.4 -- -- 81
2019-01-31 13:00:00 7.6 36 Sudoeste 64 Sudoeste 0.2 -- -- 82
2019-01-31 12:00:00 7.5 35 Sudoeste 61 Sudoeste 0.1 -- -- 83
2019-01-31 11:00:00 8.2 26 Sudoeste 55 Sudoeste 0.1 -- -- 75
2019-01-31 10:00:00 7.9 24 Sudoeste 55 Sudoeste 0.6 -- -- 81
2019-01-31 09:00:00 7.5 20 Sudoeste 47 Sudoeste 0.2 -- -- 84
2019-01-31 08:00:00 8.2 21 Sudoeste 36 Sudoeste 0.2 -- -- 79
2019-01-31 07:00:00 8.3 10 Sudoeste 49 Sudoeste 0.6 -- -- 79
2019-01-31 06:00:00 8 23 Sudoeste 62 Sudoeste 0.4 -- -- 80
2019-01-31 05:00:00 8.2 22 Sudoeste 59 Sudoeste 0 -- -- 78
2019-01-31 04:00:00 7.4 24 Sudoeste 58 Sudoeste 0.1 -- -- 82
2019-01-31 03:00:00 7.8 26 Sudoeste 56 Sudoeste 0.3 -- -- 79
2019-01-31 02:00:00 7.1 25 Sudoeste 60 Sudoeste 0.1 -- -- 82
2019-01-31 01:00:00 6.9 32 Sudoeste 61 Sudoeste 0.3 -- -- 83
2019-01-31 00:00:00 6.7 31 Sudoeste 59 Sudoeste 0.2 -- -- 85
2019-01-30 23:00:00 5.9 22 Sudoeste 66 Sudoeste 0.1 -- -- 87
2019-01-30 22:00:00 5.5 26 Sudoeste 49 Sur 0.3 -- -- 87
2019-01-30 21:00:00 5 18 Sur 35 Sur 0 -- -- 87
2019-01-30 20:00:00 4.7 15 Sudoeste 47 Sudoeste 0 -- -- 86
2019-01-30 19:00:00 4.3 31 Sur 53 Sur 0 -- -- 85
2019-01-30 18:00:00 4.7 18 Sudoeste 44 Sudoeste 0 -- -- 78
2019-01-30 17:00:00 5.1 25 Sudoeste 45 Sudoeste 0 -- -- 67
2019-01-30 16:00:00 6.9 24 Sudoeste 37 Sudoeste 0 -- -- 44
2019-01-30 15:00:00 7.3 14 Sudoeste 33 Sudoeste 0 -- -- 38
2019-01-30 14:00:00 7.5 14 Sudoeste 28 Oeste 0 -- -- 43
2019-01-30 13:00:00 6.8 12 Oeste 23 Sudoeste 0 -- -- 48
2019-01-30 12:00:00 7.1 11 Oeste 24 Oeste 0 -- -- 49
2019-01-30 11:00:00 5.3 10 Oeste 21 Oeste 0 -- -- 54
2019-01-30 10:00:00 4.1 8 Noroeste 17 Noroeste 0 -- -- 59
2019-01-30 09:00:00 2.6 0 Calma 10 Sudoeste 0 -- -- 63
2019-01-30 08:00:00 2.1 0 Calma 8 Sudeste 0 -- -- 70
2019-01-30 07:00:00 3.1 2 Sudoeste 8 Oeste 0 -- -- 65
2019-01-30 06:00:00 3.9 3 Nordeste 7 Norte 0 -- -- 66
2019-01-30 05:00:00 4.4 0 Calma 9 Sudoeste 0 -- -- 65
2019-01-30 04:00:00 5.1 3 Oeste 13 Sudoeste 0 -- -- 65
2019-01-30 03:00:00 5.2 7 Oeste 20 Oeste 0 -- -- 68
2019-01-30 02:00:00 5.4 5 Sudoeste 27 Sudoeste 0 -- -- 71
2019-01-30 01:00:00 5.5 21 Sudoeste 40 Sudoeste 0 -- -- 72
2019-01-30 00:00:00 5.9 23 Sudoeste 42 Sudoeste 0 -- -- 72
2019-01-29 23:00:00 6.9 26 Sudoeste 49 Sudoeste 0 -- -- 65
2019-01-29 22:00:00 7 21 Oeste 42 Sudoeste 0 -- -- 67
2019-01-29 21:00:00 7.3 25 Sudoeste 45 Sudoeste 0 -- -- 71
2019-01-29 20:00:00 7.1 27 Sudoeste 55 Sudoeste 0 -- -- 71
2019-01-29 19:00:00 7 24 Sudoeste 61 Sudoeste 0 -- -- 69
2019-01-29 18:00:00 7.2 23 Sudoeste 54 Sudoeste 0 -- -- 66
2019-01-29 17:00:00 7.4 19 Oeste 61 Sudoeste 0 -- -- 65
2019-01-29 16:00:00 7.2 27 Oeste 55 Sudoeste 0 -- -- 64
2019-01-29 15:00:00 6.4 30 Sudoeste 66 Sudoeste 0 -- -- 66
2019-01-29 14:00:00 5.4 26 Sudoeste 47 Sudoeste 0 -- -- 70
2019-01-29 13:00:00 6.3 20 Sudoeste 33 Sudoeste 0 -- -- 62
2019-01-29 12:00:00 7.6 10 Oeste 33 Sudoeste 0 -- -- 56
2019-01-29 11:00:00 6.5 17 Oeste 28 Oeste 0 -- -- 61
2019-01-29 10:00:00 5.5 2 Oeste 10 Sudeste 0 -- -- 64
2019-01-29 09:00:00 3.6 6 Sudeste 11 Sur 0 -- -- 70
2019-01-29 08:00:00 3 4 Sudeste 7 Sudoeste 0 -- -- 71
2019-01-29 07:00:00 2.6 0 Calma 6 Este 0 -- -- 69
2019-01-29 06:00:00 3 0 Calma 6 Sudoeste 0 -- -- 68
2019-01-29 05:00:00 3 0 Calma 9 Este 0 -- -- 69
2019-01-29 04:00:00 3 6 Este 12 Sur 0 -- -- 66
2019-01-29 03:00:00 3.2 7 Este 10 Este 0 -- -- 64
2019-01-29 02:00:00 4.4 8 Sudeste 10 Sudeste 0 -- -- 58
2019-01-29 01:00:00 4.6 3 Sudoeste 10 Oeste 0 -- -- 55
2019-01-29 00:00:00 4.5 3 Oeste 7 Oeste 0 -- -- 58
2019-01-28 23:00:00 4.6 5 Sudeste 12 Oeste 0 -- -- 60
2019-01-28 22:00:00 5.6 9 Oeste 26 Oeste 0 -- -- 55
2019-01-28 21:00:00 6.3 14 Oeste 30 Oeste 0 -- -- 56
2019-01-28 20:00:00 6.5 15 Oeste 27 Sudoeste 0 -- -- 59
2019-01-28 19:00:00 7 17 Oeste 37 Oeste 0 -- -- 59
2019-01-28 18:00:00 7.8 21 Oeste 45 Oeste 0 -- -- 54
2019-01-28 17:00:00 9.6 16 Oeste 37 Noroeste 0 -- -- 47
2019-01-28 16:00:00 9.7 16 Sudoeste 35 Oeste 0 -- -- 45
2019-01-28 15:00:00 9.9 14 Oeste 28 Oeste 0 -- -- 43
2019-01-28 14:00:00 9.4 11 Oeste 21 Noroeste 0 -- -- 41
2019-01-28 13:00:00 9.4 13 Noroeste 21 Norte 0 -- -- 40
2019-01-28 12:00:00 9.6 11 Noroeste 21 Norte 0 -- -- 39
2019-01-28 11:00:00 7.9 2 Nordeste 11 Sudoeste 0 -- -- 42
2019-01-28 10:00:00 6.7 5 Oeste 22 Sudoeste 0 -- -- 42
2019-01-28 09:00:00 5.5 12 Sudoeste 17 Sudoeste 0 -- -- 47
2019-01-28 08:00:00 4.9 12 Sudoeste 18 Oeste 0 -- -- 47
2019-01-28 07:00:00 2.6 8 Sudoeste 15 Sudoeste 0 -- -- 50
2019-01-28 06:00:00 1.6 7 Sudeste 10 Sudeste 0 -- -- 51
2019-01-28 05:00:00 3.1 2 Noroeste 16 Oeste 0 -- -- 47
2019-01-28 04:00:00 3.6 10 Oeste 14 Oeste 0 -- -- 47
2019-01-28 03:00:00 3.4 3 Sur 13 Oeste 0 -- -- 49
2019-01-28 02:00:00 3.3 8 Oeste 13 Oeste 0 -- -- 52
2019-01-28 01:00:00 3.1 0 Calma 13 Sudoeste 0 -- -- 52
2019-01-28 00:00:00 3.3 8 Sudoeste 12 Sudoeste 0 -- -- 53
2019-01-27 23:00:00 3.1 0 Calma 5 Sudeste 0 -- -- 52
2019-01-27 22:00:00 3.2 0 Calma 7 Sudoeste 0 -- -- 48
2019-01-27 21:00:00 3.6 0 Calma 16 Norte 0 -- -- 48
2019-01-27 20:00:00 3.4 8 Oeste 14 Oeste 0 -- -- 47
2019-01-27 19:00:00 4.5 9 Sudoeste 18 Oeste 0 -- -- 45
2019-01-27 18:00:00 6.9 13 Noroeste 23 Noroeste 0 -- -- 42
2019-01-27 17:00:00 8.8 11 Noroeste 22 Noroeste 0 -- -- 42
2019-01-27 16:00:00 9.8 13 Noroeste 23 Oeste 0 -- -- 40
2019-01-27 15:00:00 9.4 10 Noroeste 27 Noroeste 0 -- -- 44
2019-01-27 14:00:00 9.2 11 Norte 23 Norte 0 -- -- 44
2019-01-27 13:00:00 8.4 14 Norte 26 Norte 0 -- -- 44
2019-01-27 12:00:00 8.3 16 Norte 27 Noroeste 0 -- -- 44
2019-01-27 11:00:00 8.3 11 Noroeste 26 Oeste 0 -- -- 47
2019-01-27 10:00:00 6.5 13 Noroeste 22 Oeste 0 -- -- 47
2019-01-27 09:00:00 5 8 Oeste 31 Oeste 0 -- -- 44
2019-01-27 08:00:00 5 11 Oeste 27 Noroeste 0 -- -- 43
2019-01-27 07:00:00 4.5 4 Sudeste 10 Noroeste 0 -- -- 47
2019-01-27 06:00:00 4.8 0 Calma 23 Sudoeste 0 -- -- 44
2019-01-27 05:00:00 6.6 12 Sudoeste 29 Oeste 0 -- -- 44
2019-01-27 04:00:00 7.3 8 Sudoeste 22 Sudoeste 0 -- -- 48
2019-01-27 03:00:00 6 0 Calma 15 Sudeste 0 -- -- 43
2019-01-27 02:00:00 6.7 4 Sudeste 16 Sur 0 -- -- 49
2019-01-27 01:00:00 7.4 3 Sudeste 28 Sudoeste 0 -- -- 47
2019-01-27 00:00:00 7.9 16 Sudoeste 28 Sudoeste 0 -- -- 47
2019-01-26 23:00:00 7.8 18 Sudoeste 28 Sudoeste 0 -- -- 51
2019-01-26 22:00:00 8 10 Sudoeste 24 Sudoeste 0 -- -- 46
2019-01-26 21:00:00 6.8 0 Calma 27 Sudoeste 0 -- -- 45
2019-01-26 20:00:00 9.8 21 Sudoeste 33 Sudoeste 0 -- -- 39
2019-01-26 19:00:00 9.7 16 Sudoeste 28 Sur 0 -- -- 40
2019-01-26 18:00:00 10.6 13 Sudoeste 21 Sudoeste 0 -- -- 35
2019-01-26 17:00:00 12.9 4 Noroeste 11 Noroeste 0 -- -- 37
2019-01-26 16:00:00 14.4 6 Norte 14 Norte 0 -- -- 34
2019-01-26 15:00:00 14.7 4 Noroeste 14 Norte 0 -- -- 30
2019-01-26 14:00:00 14.4 3 Norte 11 Norte 0 -- -- 32
2019-01-26 13:00:00 13 3 Norte 9 Norte 0 -- -- 33
2019-01-26 12:00:00 12.5 3 Nordeste 8 Sudeste 0 -- -- 32
2019-01-26 11:00:00 11.1 4 Este 10 Sudeste 0 -- -- 37
2019-01-26 10:00:00 9.1 0 Calma -- -- 0 -- -- 43
2019-01-26 09:00:00 6.2 0 Calma -- -- 0 -- -- 46
2019-01-26 08:00:00 5.3 0 Calma 7 Sudoeste 0 -- -- 48
2019-01-26 07:00:00 5.5 2 Sudoeste 8 Sudoeste 0 -- -- 47
2019-01-26 06:00:00 4.8 6 Oeste 11 Oeste 0 -- -- 48
2019-01-26 05:00:00 4.4 0 Calma 8 Sudoeste 0 -- -- 52
2019-01-26 04:00:00 5.2 0 Calma 8 Sur 0 -- -- 51
2019-01-26 03:00:00 5.2 0 Calma -- -- 0 -- -- 52
2019-01-26 02:00:00 5.2 0 Calma 6 Sudoeste 0 -- -- 52
2019-01-26 01:00:00 5.4 0 Calma 9 Sudoeste 0 -- -- 52
2019-01-26 00:00:00 4.6 5 Sudoeste 11 Oeste 0 -- -- 57
2019-01-25 23:00:00 4.5 7 Oeste 13 Oeste 0 -- -- 51
2019-01-25 22:00:00 5.6 0 Calma 5 Nordeste 0 -- -- 45
2019-01-25 21:00:00 6.9 3 Norte 14 Oeste 0 -- -- 43
2019-01-25 20:00:00 7.3 4 Sudoeste 15 Oeste 0 -- -- 42
2019-01-25 19:00:00 8 7 Oeste 11 Oeste 0 -- -- 41
2019-01-25 18:00:00 10.6 4 Norte 21 Noroeste 0 -- -- 36
2019-01-25 17:00:00 12.7 10 Norte 19 Noroeste 0 -- -- 34
2019-01-25 16:00:00 13.4 12 Norte 24 Norte 0 -- -- 33
2019-01-25 15:00:00 12.9 12 Norte 31 Norte 0 -- -- 33
2019-01-25 14:00:00 12.5 15 Norte 29 Norte 0 -- -- 37
2019-01-25 13:00:00 10.8 14 Norte 31 Norte 0 -- -- 43
2019-01-25 12:00:00 9.7 11 Norte 23 Norte 0 -- -- 50
2019-01-25 11:00:00 8.1 6 Norte 15 Norte 0 -- -- 58
2019-01-25 10:00:00 6.4 0 Calma 12 Nordeste 0 -- -- 66
2019-01-25 09:00:00 4.8 5 Sudoeste 12 Nordeste 0 -- -- 73
2019-01-25 08:00:00 5.4 4 Norte 20 Nordeste 0 -- -- 70
2019-01-25 07:00:00 5.5 8 Nordeste 19 Nordeste 0 -- -- 68
2019-01-25 06:00:00 6 8 Nordeste 20 Nordeste 0 -- -- 68
2019-01-25 05:00:00 5.3 5 Este 12 Nordeste 0 -- -- 71
2019-01-25 04:00:00 5.4 0 Calma 7 Sur 0 -- -- 71
2019-01-25 03:00:00 5.6 0 Calma 13 Este 0 -- -- 72
2019-01-25 02:00:00 5.9 6 Este 12 Este 0 -- -- 69
2019-01-25 01:00:00 6.4 6 Sudeste 12 Sudeste 0 -- -- 66
2019-01-25 00:00:00 7.5 0 Calma 10 Nordeste 0 -- -- 60
2019-01-24 23:00:00 7.8 6 Oeste 15 Nordeste 0 -- -- 58
2019-01-24 22:00:00 9.6 7 Nordeste 14 Nordeste 0 -- -- 54
2019-01-24 21:00:00 9.4 6 Oeste 15 Noroeste 0 -- -- 52
2019-01-24 20:00:00 10.2 7 Sudoeste 13 Oeste 0 -- -- 52
2019-01-24 19:00:00 11.1 2 Oeste 11 Sudoeste 0 -- -- 49
2019-01-24 18:00:00 11.6 5 Oeste 23 Oeste 0 -- -- 48
2019-01-24 17:00:00 12.8 14 Noroeste 23 Oeste 0 -- -- 45
2019-01-24 16:00:00 12.3 11 Noroeste 27 Noroeste 0 -- -- 45
2019-01-24 15:00:00 13.3 13 Noroeste 32 Noroeste 0 -- -- 42
2019-01-24 14:00:00 12.9 14 Norte 28 Noroeste 0 -- -- 43
2019-01-24 13:00:00 12.1 14 Noroeste 26 Oeste 0 -- -- 45
2019-01-24 12:00:00 11.4 15 Noroeste 25 Noroeste 0 -- -- 48
2019-01-24 11:00:00 10.5 17 Noroeste 24 Noroeste 0 -- -- 50
2019-01-24 10:00:00 8.9 10 Oeste 15 Oeste 0 -- -- 56
2019-01-24 09:00:00 6.8 7 Oeste 17 Oeste 0 -- -- 61
2019-01-24 08:00:00 7.6 11 Oeste 26 Oeste 0 -- -- 57
2019-01-24 07:00:00 8.2 15 Oeste 30 Oeste 0 -- -- 55
2019-01-24 06:00:00 8.6 19 Oeste 30 Oeste 0 -- -- 53
2019-01-24 05:00:00 8.3 18 Oeste 35 Oeste 0 -- -- 54
2019-01-24 04:00:00 8.8 22 Oeste 35 Oeste 0 -- -- 53
2019-01-24 03:00:00 9 22 Oeste 35 Noroeste 0 -- -- 53
2019-01-24 02:00:00 8.9 19 Oeste 32 Oeste 0 -- -- 53
2019-01-24 01:00:00 9.8 19 Oeste 36 Oeste 0 -- -- 51
2019-01-24 00:00:00 9.4 17 Oeste 27 Oeste 0 -- -- 52